Alt de Hatillo, Puerto Rico
Current Conditions -  °F | °C
As of 8:50 AM on Thursday 30 Oct 2014 (Local Time) from TJBQ Reporting Station
Broken Clouds Broken Clouds  
Wind Chill: 81°   Ceiling: 3800
Heat Index: 85°   Visibility: 10mi
Dew Point: 73°   Wind: 5mph
Humidity: 79%   Direction: 50°NE
Pressure: 29.87"   Gusts: NA
Location:  18.4851°N, 66.8257°W
Report Text: TJBQ 301250Z 05004KT 10SM SCT016 SCT026 BKN038 27/23 A2987 RMK RWY08 ATIS U
Loading
Personal Weather Stations






























Interactive Weather Map
Tropical Storm Tracking
New forecast layout! Learn more

10-Day Weather Forecast

Advertisements
Track Severe Weather on mobile